Time;durP1;ratioP1;P1;durP2;ratioP2;P2;SDS_P1;SDS_P2;PMS_P1;PMS_P2;Temp;Humidity;BMP_temperature;BMP_pressure;BME280_temperature;BME280_humidity;BME280_pressure;Samples;Min_cycle;Max_cycle;Signal;HPM_P1;HPM_P2
2023/01/16 00:00:44;;;;;;;;;;;;;;;;;;5073347;28;19928;-57
2023/01/16 00:03:10;;;;;;;;;;;;;;;;;;5074984;28;20515;-57
2023/01/16 00:05:36;;;;;;;;;;;;;;;;;;5073761;28;19927;-57
2023/01/16 00:08:02;;;;;;;;;;;;;;;;;;5074306;28;19920;-58
2023/01/16 00:10:28;;;;;;;;;;;;;;;;;;5079955;28;19927;-58
2023/01/16 00:12:54;;;;;;;;;;;;;;;;;;5080790;28;19936;-58
2023/01/16 00:15:20;;;;;;;;;;;;;;;;;;5082366;28;19924;-58
2023/01/16 00:17:47;;;;;;;;;;;;;;;;;;5083178;28;21044;-59
2023/01/16 00:20:13;;;;;;;;;;;;;;;;;;5080650;28;19924;-58
2023/01/16 00:22:39;;;;;;;;;;;;;;;;;;5084032;28;20341;-57
2023/01/16 00:25:05;;;;;;;;;;;;;;;;;;5082248;28;19965;-57
2023/01/16 00:27:31;;;;;;;;;;;;;;;;;;5083512;28;19920;-57
2023/01/16 00:29:57;;;;;;;;;;;;;;;;;;5076998;28;20003;-58
2023/01/16 00:32:23;;;;;;;;;;;;;;;;;;5074876;28;19961;-57
2023/01/16 00:34:49;;;;;;;;;;;;;;;;;;5078310;28;19920;-60
2023/01/16 00:37:14;;;;;;;;;;;;;;;;;;5072326;28;20335;-56
2023/01/16 00:39:40;;;;;;;;;;;;;;;;;;5068343;28;20056;-58
2023/01/16 00:42:06;;;;;;;;;;;;;;;;;;5074381;28;19967;-58
2023/01/16 00:44:32;;;;;;;;;;;;;;;;;;5076514;28;19936;-57
2023/01/16 00:46:58;;;;;;;;;;;;;;;;;;5075139;28;19941;-57
2023/01/16 00:49:24;;;;;;;;;;;;;;;;;;5067807;28;19924;-58
2023/01/16 00:51:50;;;;;;;;;;;;;;;;;;5068949;28;19970;-57
2023/01/16 00:54:16;;;;;;;;;;;;;;;;;;5068683;28;20347;-59
2023/01/16 00:56:42;;;;;;;;;;;;;;;;;;5068919;28;20589;-58
2023/01/16 00:59:08;;;;;;;;;;;;;;;;;;5069299;28;19920;-57
2023/01/16 01:01:34;;;;;;;;;;;;;;;;;;5068091;28;19974;-57
2023/01/16 01:03:59;;;;;;;;;;;;;;;;;;5069772;28;19931;-57
2023/01/16 01:06:25;;;;;;;;;;;;;;;;;;5068547;28;19974;-58
2023/01/16 01:08:51;;;;;;;;;;;;;;;;;;5072486;28;19982;-58
2023/01/16 01:11:17;;;;;;;;;;;;;;;;;;5068023;28;19920;-58
2023/01/16 01:13:43;;;;;;;;;;;;;;;;;;5068629;28;19920;-60
2023/01/16 01:16:09;;;;;;;;;;;;;;;;;;5067147;28;19927;-58
2023/01/16 01:18:35;;;;;;;;;;;;;;;;;;5068346;28;20019;-57
2023/01/16 01:21:01;;;;;;;;;;;;;;;;;;5068192;28;19920;-58
2023/01/16 01:23:27;;;;;;;;;;;;;;;;;;5067132;28;20018;-58
2023/01/16 01:25:53;;;;;;;;;;;;;;;;;;5068816;28;20247;-58
2023/01/16 01:28:18;;;;;;;;;;;;;;;;;;5071012;28;19926;-58
2023/01/16 01:30:44;;;;;;;;;;;;;;;;;;5072054;28;19935;-58
2023/01/16 01:33:10;;;;;;;;;;;;;;;;;;5073595;28;19920;-60
2023/01/16 01:35:36;;;;;;;;;;;;;;;;;;5067540;28;19920;-59
2023/01/16 01:38:02;;;;;;;;;;;;;;;;;;5068851;28;20360;-58
2023/01/16 01:40:28;;;;;;;;;;;;;;;;;;5066716;28;20006;-58
2023/01/16 01:42:54;;;;;;;;;;;;;;;;;;5076272;28;20035;-58
2023/01/16 01:45:20;;;;;;;;;;;;;;;;;;5067497;28;19971;-57
2023/01/16 01:47:48;;;;;;;;;;;;;;;;;;5071101;28;19976;-59
2023/01/16 01:50:14;;;;;;;;;;;;;;;;;;5067013;28;19932;-58
2023/01/16 01:52:40;;;;;;;;;;;;;;;;;;5068679;28;19924;-58
2023/01/16 01:55:06;;;;;;;;;;;;;;;;;;5067942;28;19924;-57
2023/01/16 01:57:32;;;;;;;;;;;;;;;;;;5066670;28;19924;-60
2023/01/16 01:59:58;;;;;;;;;;;;;;;;;;5067511;28;19920;-58
2023/01/16 02:02:24;;;;;;;;;;;;;;;;;;5067624;28;19928;-58
2023/01/16 02:04:51;;;;;;;;;;;;;;;;;;5067731;28;19931;-58
2023/01/16 02:07:17;;;;;;;;;;;;;;;;;;5066702;28;19986;-58
2023/01/16 02:09:43;;;;;;;;;;;;;;;;;;5076338;28;19955;-58
2023/01/16 02:12:09;;;;;;;;;;;;;;;;;;5068958;28;20393;-60
2023/01/16 02:14:35;;;;;;;;;;;;;;;;;;5068170;28;20451;-57
2023/01/16 02:19:45;;;;;;;;;;;;;;;;;;5070404;28;19921;-58
2023/01/16 02:22:11;;;;;;;;;;;;;;;;;;5070647;28;19920;-57
2023/01/16 02:24:37;;;;;;;;;;;;;;;;;;5068366;28;19937;-58
2023/01/16 02:27:03;;;;;;;;;;;;;;;;;;5066920;28;20368;-58
2023/01/16 02:29:29;;;;;;;;;;;;;;;;;;5067409;28;19920;-57
2023/01/16 02:31:55;;;;;;;;;;;;;;;;;;5066297;28;19924;-58
2023/01/16 02:34:21;;;;;;;;;;;;;;;;;;5066324;28;19965;-58
2023/01/16 02:36:47;;;;;;;;;;;;;;;;;;5067199;28;19931;-58
2023/01/16 02:39:13;;;;;;;;;;;;;;;;;;5065783;28;19951;-58
2023/01/16 02:41:42;;;;;;;;;;;;;;;;;;5066915;28;20382;-57
2023/01/16 02:44:07;;;;;;;;;;;;;;;;;;5066673;28;19921;-58
2023/01/16 02:46:33;;;;;;;;;;;;;;;;;;5066087;28;19928;-58
2023/01/16 02:48:59;;;;;;;;;;;;;;;;;;5067012;28;19944;-57
2023/01/16 02:51:25;;;;;;;;;;;;;;;;;;5066506;28;19928;-58
2023/01/16 02:53:51;;;;;;;;;;;;;;;;;;5064879;28;19920;-58
2023/01/16 02:56:17;;;;;;;;;;;;;;;;;;5065927;28;19932;-58
2023/01/16 02:58:43;;;;;;;;;;;;;;;;;;5066474;28;20314;-57
2023/01/16 03:01:09;;;;;;;;;;;;;;;;;;5065621;28;19973;-59
2023/01/16 03:03:35;;;;;;;;;;;;;;;;;;5066607;28;19924;-59
2023/01/16 03:06:01;;;;;;;;;;;;;;;;;;5066428;28;19950;-58
2023/01/16 03:08:27;;;;;;;;;;;;;;;;;;5065343;28;19946;-58
2023/01/16 03:10:55;;;;;;;;;;;;;;;;;;5066507;28;20042;-58
2023/01/16 03:13:21;;;;;;;;;;;;;;;;;;5064476;28;19963;-58
2023/01/16 03:15:47;;;;;;;;;;;;;;;;;;5065892;28;19978;-58
2023/01/16 03:18:13;;;;;;;;;;;;;;;;;;5073504;28;20038;-58
2023/01/16 03:20:39;;;;;;;;;;;;;;;;;;5072271;28;19920;-60
2023/01/16 03:23:05;;;;;;;;;;;;;;;;;;5065557;28;19975;-60
2023/01/16 03:25:31;;;;;;;;;;;;;;;;;;5073653;28;19920;-58
2023/01/16 03:27:57;;;;;;;;;;;;;;;;;;5065765;28;19964;-58
2023/01/16 03:30:22;;;;;;;;;;;;;;;;;;5065997;28;20386;-57
2023/01/16 03:32:48;;;;;;;;;;;;;;;;;;5066069;28;19920;-59
2023/01/16 03:35:14;;;;;;;;;;;;;;;;;;5064747;28;19930;-58
2023/01/16 03:37:43;;;;;;;;;;;;;;;;;;5073855;28;20338;-57
2023/01/16 03:40:09;;;;;;;;;;;;;;;;;;5065464;28;19920;-58
2023/01/16 03:42:35;;;;;;;;;;;;;;;;;;5065206;28;20307;-58
2023/01/16 03:45:01;;;;;;;;;;;;;;;;;;5066218;28;20053;-58
2023/01/16 03:47:27;;;;;;;;;;;;;;;;;;5065284;28;19996;-58
2023/01/16 03:49:53;;;;;;;;;;;;;;;;;;5065868;28;20320;-58
2023/01/16 03:52:19;;;;;;;;;;;;;;;;;;5065087;28;20003;-58
2023/01/16 03:54:45;;;;;;;;;;;;;;;;;;5072158;28;20446;-58
2023/01/16 03:57:10;;;;;;;;;;;;;;;;;;5064656;28;20391;-58
2023/01/16 03:59:36;;;;;;;;;;;;;;;;;;5065685;28;19986;-59
2023/01/16 04:02:02;;;;;;;;;;;;;;;;;;5065765;28;20003;-57
2023/01/16 04:04:28;;;;;;;;;;;;;;;;;;5064492;28;19924;-58
2023/01/16 04:06:54;;;;;;;;;;;;;;;;;;5065914;28;19942;-58
2023/01/16 04:09:20;;;;;;;;;;;;;;;;;;5064748;28;19924;-58
2023/01/16 04:11:46;;;;;;;;;;;;;;;;;;5069259;28;20423;-58
2023/01/16 04:14:12;;;;;;;;;;;;;;;;;;5065168;28;19930;-58
2023/01/16 04:16:39;;;;;;;;;;;;;;;;;;5065605;28;19927;-58
2023/01/16 04:19:05;;;;;;;;;;;;;;;;;;5064686;28;19929;-58
2023/01/16 04:21:31;;;;;;;;;;;;;;;;;;5065148;28;19973;-58
2023/01/16 04:23:57;;;;;;;;;;;;;;;;;;5065538;28;19920;-58
2023/01/16 04:26:23;;;;;;;;;;;;;;;;;;5067999;28;19921;-58
2023/01/16 04:28:53;;;;;;;;;;;;;;;;;;5069225;28;19974;-58
2023/01/16 04:31:18;;;;;;;;;;;;;;;;;;5067992;28;20353;-60
2023/01/16 04:33:44;;;;;;;;;;;;;;;;;;5069262;28;19935;-60
2023/01/16 04:36:10;;;;;;;;;;;;;;;;;;5068848;28;19930;-58
2023/01/16 04:38:36;;;;;;;;;;;;;;;;;;5067985;28;19946;-58
2023/01/16 04:41:02;;;;;;;;;;;;;;;;;;5069290;28;19920;-58
2023/01/16 04:43:28;;;;;;;;;;;;;;;;;;5068575;28;19924;-58
2023/01/16 04:45:54;;;;;;;;;;;;;;;;;;5069498;28;20129;-57
2023/01/16 04:48:20;;;;;;;;;;;;;;;;;;5068488;28;19977;-58
2023/01/16 04:50:46;;;;;;;;;;;;;;;;;;5068910;28;19920;-60
2023/01/16 04:53:11;;;;;;;;;;;;;;;;;;5067720;28;19920;-61
2023/01/16 04:55:37;;;;;;;;;;;;;;;;;;5069013;28;19920;-58
2023/01/16 04:58:03;;;;;;;;;;;;;;;;;;5068739;28;20284;-60
2023/01/16 05:00:29;;;;;;;;;;;;;;;;;;5067573;28;19924;-58
2023/01/16 05:02:55;;;;;;;;;;;;;;;;;;5069372;28;19931;-60
2023/01/16 05:05:21;;;;;;;;;;;;;;;;;;5067933;28;19920;-59
2023/01/16 05:08:15;;;;;;;;;;;;;;;;;;5076305;28;19924;-58
2023/01/16 05:10:33;;;;;;;;;;;;;;;;;;5076322;28;20011;-60
2023/01/16 05:12:59;;;;;;;;;;;;;;;;;;5068624;28;20016;-58
2023/01/16 05:15:25;;;;;;;;;;;;;;;;;;5067563;28;20468;-58
2023/01/16 05:17:50;;;;;;;;;;;;;;;;;;5068563;28;19928;-57
2023/01/16 05:20:16;;;;;;;;;;;;;;;;;;5068552;28;20348;-60
2023/01/16 05:22:42;;;;;;;;;;;;;;;;;;5083492;28;20263;-57
2023/01/16 05:25:08;;;;;;;;;;;;;;;;;;5080801;28;20018;-58
2023/01/16 05:27:34;;;;;;;;;;;;;;;;;;5078723;28;19928;-57
2023/01/16 05:30:00;;;;;;;;;;;;;;;;;;5081253;28;19924;-59
2023/01/16 05:32:26;;;;;;;;;;;;;;;;;;5073551;28;19928;-58
2023/01/16 05:34:52;;;;;;;;;;;;;;;;;;5081645;28;19951;-58
2023/01/16 05:37:18;;;;;;;;;;;;;;;;;;5076881;28;19920;-58
2023/01/16 05:39:44;;;;;;;;;;;;;;;;;;5082006;28;19920;-58
2023/01/16 05:42:20;;;;;;;;;;;;;;;;;;5075917;28;19919;-58
2023/01/16 05:44:46;;;;;;;;;;;;;;;;;;5074415;28;20405;-58
2023/01/16 05:47:12;;;;;;;;;;;;;;;;;;5074641;28;20011;-58
2023/01/16 05:49:38;;;;;;;1.88;1.20;;;;;;;;;;5071704;28;20249;-58
2023/01/16 05:52:04;;;;;;;1.20;1.10;;;;;;;;;;5071997;28;20127;-58
2023/01/16 05:54:30;;;;;;;;;;;;;;;;;;5071925;28;20400;-58
2023/01/16 05:56:56;;;;;;;;;;;;;;;;;;5067590;28;19920;-57
2023/01/16 05:59:22;;;;;;;;;;;;;;;;;;5074993;28;19921;-59
2023/01/16 06:01:48;;;;;;;;;;;;;;;;;;5076428;28;19924;-60
2023/01/16 06:04:14;;;;;;;;;;;;;;;;;;5075321;28;19921;-58
2023/01/16 06:06:40;;;;;;;;;;;;;;;;;;5074387;28;19970;-60
2023/01/16 06:09:05;;;;;;;;;;;;;;;;;;5077116;28;19928;-58
2023/01/16 06:11:31;;;;;;;;;;;;;;;;;;5074803;28;19920;-57
2023/01/16 06:14:03;;;;;;;;;;;;;;;;;;5073936;28;19971;-57
2023/01/16 06:16:29;;;;;;;;;;;;;;;;;;5077106;28;19920;-57
2023/01/16 06:18:54;;;;;;;;;;;;;;;;;;5075496;28;20341;-57
2023/01/16 06:21:20;;;;;;;;;;;;;;;;;;5077877;28;19927;-58
2023/01/16 06:23:46;;;;;;;;;;;;;;;;;;5078095;28;19985;-60
2023/01/16 06:26:12;;;;;;;;;;;;;;;;;;5075857;28;19921;-58
2023/01/16 06:28:38;;;;;;;;;;;;;;;;;;5075836;28;19920;-58
2023/01/16 06:31:04;;;;;;;;;;;;;;;;;;5073763;28;19928;-57
2023/01/16 06:33:30;;;;;;;;;;;;;;;;;;5074424;28;20438;-57
2023/01/16 06:35:56;;;;;;;;;;;;;;;;;;5076962;28;19964;-57
2023/01/16 06:38:22;;;;;;;;;;;;;;;;;;5062970;28;20391;-57
2023/01/16 06:40:48;;;;;;;;;;;;;;;;;;5078244;28;19927;-57
2023/01/16 06:43:16;;;;;;;;;;;;;;;;;;5073140;28;19921;-60
2023/01/16 06:45:42;;;;;;;;;;;;;;;;;;5075629;28;20402;-58
2023/01/16 06:48:08;;;;;;;;;;;;;;;;;;5078113;28;19949;-57
2023/01/16 06:50:34;;;;;;;;;;;;;;;;;;5075373;28;19920;-60
2023/01/16 06:52:59;;;;;;;;;;;;;;;;;;5074389;28;20390;-57
2023/01/16 06:55:25;;;;;;;;;;;;;;;;;;5074238;28;19924;-58
2023/01/16 06:57:51;;;;;;;;;;;;;;;;;;5074701;28;19924;-60
2023/01/16 07:00:17;;;;;;;;;;;;;;;;;;5072553;28;19924;-56
2023/01/16 07:02:43;;;;;;;;;;;;;;;;;;5075261;28;19923;-57
2023/01/16 07:05:09;;;;;;;;;;;;;;;;;;5072634;28;20335;-58
2023/01/16 07:07:35;;;;;;;;;;;;;;;;;;5074698;28;19931;-56
2023/01/16 07:10:01;;;;;;;;;;;;;;;;;;5075062;28;20368;-59
2023/01/16 07:12:27;;;;;;;;;;;;;;;;;;5077393;28;20007;-57
2023/01/16 07:23:06;;;;;;;;;;;;;;;;;;5072718;28;19924;-58
2023/01/16 07:25:32;;;;;;;;;;;;;;;;;;5074312;28;20333;-58
2023/01/16 07:27:58;;;;;;;;;;;;;;;;;;5076055;28;19924;-58
2023/01/16 07:30:24;;;;;;;;;;;;;;;;;;5073290;28;19924;-58
2023/01/16 07:32:50;;;;;;;;;;;;;;;;;;5076271;28;20489;-57
2023/01/16 07:35:16;;;;;;;;;;;;;;;;;;5071877;28;19920;-59
2023/01/16 07:37:45;;;;;;;;;;;;;;;;;;5078415;28;19924;-58
2023/01/16 07:40:11;;;;;;;;;;;;;;;;;;5073701;28;19920;-57
2023/01/16 07:42:37;;;;;;;;;;;;;;;;;;5072977;28;20257;-57
2023/01/16 07:45:03;;;;;;;;;;;;;;;;;;5072876;28;19920;-58
2023/01/16 07:47:29;;;;;;;;;;;;;;;;;;5074977;28;19927;-57
2023/01/16 07:49:56;;;;;;;;;;;;;;;;;;5073630;28;20325;-58
2023/01/16 07:52:22;;;;;;;;;;;;;;;;;;5072140;28;19935;-58
2023/01/16 07:54:48;;;;;;;;;;;;;;;;;;5073803;28;19924;-57
2023/01/16 07:57:14;;;;;;;;;;;;;;;;;;5070752;28;19924;-58
2023/01/16 07:59:40;;;;;;;;;;;;;;;;;;5074229;28;19924;-58
2023/01/16 08:02:06;;;;;;;;;;;;;;;;;;5082106;28;19927;-60
2023/01/16 08:04:32;;;;;;;;;;;;;;;;;;5082525;28;20372;-58
2023/01/16 08:06:58;;;;;;;;;;;;;;;;;;5079570;28;19920;-58
2023/01/16 08:09:24;;;;;;;;;;;;;;;;;;5079114;28;20359;-57
2023/01/16 08:11:49;;;;;;;;;;;;;;;;;;5090532;28;19920;-59
2023/01/16 08:14:15;;;;;;;;;;;;;;;;;;5089606;28;19927;-58
2023/01/16 08:16:41;;;;;;;;;;;;;;;;;;5089534;28;20327;-59
2023/01/16 08:19:07;;;;;;;;;;;;;;;;;;5088348;28;19928;-58
2023/01/16 08:21:33;;;;;;;;;;;;;;;;;;5082559;28;19919;-57
2023/01/16 08:23:59;;;;;;;;;;;;;;;;;;5076122;28;20035;-57
2023/01/16 08:26:25;;;;;;;;;;;;;;;;;;5080003;28;19924;-57
2023/01/16 08:28:52;;;;;;;;;;;;;;;;;;5083449;28;19920;-58
2023/01/16 08:31:18;;;;;;;;;;;;;;;;;;5079780;28;20067;-58
2023/01/16 08:33:45;;;;;;;;;;;;;;;;;;5082516;28;19924;-58
2023/01/16 08:36:11;;;;;;;;;;;;;;;;;;5071955;28;19946;-60
2023/01/16 08:38:37;;;;;;;;;;;;;;;;;;5069647;28;19924;-58
2023/01/16 08:41:03;;;;;;;;;;;;;;;;;;5070340;28;19921;-60
2023/01/16 08:51:43;;;;;;;;;;;;;;;;;;5081227;28;19924;-58
2023/01/16 08:54:09;;;;;;;;;;;;;;;;;;5075171;28;20002;-57
2023/01/16 08:56:36;;;;;;;;;;;;;;;;;;5076837;28;19927;-60
2023/01/16 08:59:02;;;;;;;;;;;;;;;;;;5079813;28;19966;-58
2023/01/16 09:01:28;;;;;;;;;;;;;;;;;;5076337;28;19928;-58
2023/01/16 09:03:54;;;;;;;;;;;;;;;;;;5078617;28;20299;-58
2023/01/16 09:06:20;;;;;;;;;;;;;;;;;;5086803;28;19974;-57
2023/01/16 09:08:46;;;;;;;;;;;;;;;;;;5073664;28;19927;-55
2023/01/16 09:14:00;;;;;;;;;;;;;;;;;;5069752;28;19920;-58
2023/01/16 09:16:26;;;;;;;;;;;;;;;;;;5067875;28;19920;-58
2023/01/16 09:18:52;;;;;;;;;;;;;;;;;;5068903;28;20334;-56
2023/01/16 09:21:23;;;;;;;;;;;;;;;;;;5067916;28;20757;-56
2023/01/16 09:23:49;;;;;;;;;;;;;;;;;;5069092;28;19921;-56
2023/01/16 09:26:15;;;;;;;;;;;;;;;;;;5068913;28;19931;-57
2023/01/16 09:28:41;;;;;;;;;;;;;;;;;;5068465;28;20433;-56
2023/01/16 09:31:07;;;;;;;;;;;;;;;;;;5068883;28;20343;-57
2023/01/16 09:33:33;;;;;;;;;;;;;;;;;;5086527;28;19981;-56
2023/01/16 09:35:59;;;;;;;;;;;;;;;;;;5082991;28;20019;-56
2023/01/16 09:38:25;;;;;;;;;;;;;;;;;;5089061;28;19924;-58
2023/01/16 09:40:51;;;;;;;;;;;;;;;;;;5086053;28;19927;-57
2023/01/16 09:43:35;;;;;;;;;;;;;;;;;;5068322;28;20299;-58
2023/01/16 09:46:01;;;;;;;;;;;;;;;;;;5080613;28;19958;-58
2023/01/16 09:48:27;;;;;;;;;;;;;;;;;;5085988;28;19971;-57
2023/01/16 09:50:53;;;;;;;;;;;;;;;;;;5080155;28;19965;-58
2023/01/16 09:58:48;;;;;;;;;;;;;;;;;;5075828;28;19924;-58
2023/01/16 10:01:14;;;;;;;;;;;;;;;;;;5085264;28;20019;-57
2023/01/16 10:03:43;;;;;;;3.92;3.60;;;;;;;;;;5085737;28;20149;-57
2023/01/16 10:06:09;;;;;;;;;;;;;;;;;;5081241;28;20048;-60
2023/01/16 10:08:35;;;;;;;;;;;;;;;;;;5082311;28;20321;-59
2023/01/16 10:11:01;;;;;;;;;;;;;;;;;;5082961;28;20007;-57
2023/01/16 10:13:27;;;;;;;;;;;;;;;;;;5082755;28;20706;-58
2023/01/16 10:15:53;;;;;;;;;;;;;;;;;;5070557;28;20019;-58
2023/01/16 10:18:19;;;;;;;;;;;;;;;;;;5079041;28;20042;-57
2023/01/16 10:20:46;;;;;;;;;;;;;;;;;;5074920;28;19934;-58
2023/01/16 10:23:12;;;;;;;;;;;;;;;;;;5080128;28;20341;-60
2023/01/16 10:25:38;;;;;;;;;;;;;;;;;;5071874;28;19929;-57
2023/01/16 10:28:04;;;;;;;;;;;;;;;;;;5073322;28;19924;-58
2023/01/16 10:30:30;;;;;;;;;;;;;;;;;;5070485;28;19924;-58
2023/01/16 10:32:56;;;;;;;;;;;;;;;;;;5072013;28;20372;-58
2023/01/16 10:35:22;;;;;;;;;;;;;;;;;;5066724;28;19931;-58
2023/01/16 10:37:48;;;;;;;;;;;;;;;;;;5065345;28;19927;-58
2023/01/16 10:40:14;;;;;;;;;;;;;;;;;;5065041;28;19921;-58
2023/01/16 10:50:53;;;;;;;;;;;;;;;;;;5064778;28;19959;-58
2023/01/16 10:53:19;;;;;;;;;;;;;;;;;;5066184;28;19967;-60
2023/01/16 10:55:45;;;;;;;;;;;;;;;;;;5067019;28;19920;-58
2023/01/16 10:58:11;;;;;;;;;;;;;;;;;;5065835;28;19928;-58
2023/01/16 11:00:37;;;;;;;;;;;;;;;;;;5066962;28;19979;-57
2023/01/16 11:03:03;;;;;;;;;;;;;;;;;;5066994;28;20011;-58
2023/01/16 11:05:28;;;;;;;;;;;;;;;;;;5065921;28;19924;-57
2023/01/16 11:07:54;;;;;;;;;;;;;;;;;;5067060;28;19985;-57
2023/01/16 11:10:20;;;;;;;;;;;;;;;;;;5066296;28;20429;-58
2023/01/16 11:18:28;;;;;;;;;;;;;;;;;;5065831;28;20392;-58
2023/01/16 11:20:53;;;;;;;;;;;;;;;;;;5064982;28;19920;-57
2023/01/16 11:23:20;;;;;;;;;;;;;;;;;;5065939;28;20384;-58
2023/01/16 11:25:45;;;;;;;;;;;;;;;;;;5066503;28;19927;-57
2023/01/16 11:28:11;;;;;;;;;;;;;;;;;;5065462;28;19928;-59
2023/01/16 11:30:38;;;;;;;;;;;;;;;;;;5066803;28;19921;-57
2023/01/16 11:33:07;;;;;;;;;;;;;;;;;;5065407;28;19924;-57
2023/01/16 11:35:33;;;;;;;;;;;;;;;;;;5066484;28;19932;-58
2023/01/16 11:37:59;;;;;;;;;;;;;;;;;;5066306;28;19920;-59
2023/01/16 11:40:25;;;;;;;;;;;;;;;;;;5066108;28;20043;-58
2023/01/16 11:48:40;;;;;;;;;;;;;;;;;;5022927;28;19925;-58
2023/01/16 11:51:06;;;;;;;;;;;;;;;;;;5023368;28;20462;-58
2023/01/16 11:53:31;;;;;;;;;;;;;;;;;;5042965;28;19920;-59
2023/01/16 11:55:57;;;;;;;;;;;;;;;;;;5065963;28;19978;-57
2023/01/16 11:58:23;;;;;;;;;;;;;;;;;;5065981;28;19921;-58
2023/01/16 12:00:49;;;;;;;;;;;;;;;;;;5066472;28;19938;-57
2023/01/16 12:03:15;;;;;;;;;;;;;;;;;;5065115;28;19929;-59
2023/01/16 12:05:53;;;;;;;;;;;;;;;;;;5066113;28;19921;-58
2023/01/16 12:08:22;;;;;;;;;;;;;;;;;;5064747;28;19924;-57
2023/01/16 12:10:48;;;;;;;;;;;;;;;;;;5065625;28;19960;-58
2023/01/16 12:15:59;;;;;;;;;;;;;;;;;;5065657;28;19921;-57
2023/01/16 12:18:24;;;;;;;;;;;;;;;;;;5066236;28;19952;-58
2023/01/16 12:20:50;;;;;;;;;;;;;;;;;;5065854;28;19920;-57
2023/01/16 12:23:16;;;;;;;;;;;;;;;;;;5064909;28;20269;-57
2023/01/16 12:25:42;;;;;;;;;;;;;;;;;;5066013;28;20026;-57
2023/01/16 12:28:08;;;;;;;;;;;;;;;;;;5065677;28;19926;-57
2023/01/16 12:30:34;;;;;;;;;;;;;;;;;;5065308;28;19924;-57
2023/01/16 12:33:00;;;;;;;;;;;;;;;;;;5065691;28;19924;-57
2023/01/16 12:35:26;;;;;;;;;;;;;;;;;;5066283;28;19927;-57
2023/01/16 12:37:53;;;;;;;;;;;;;;;;;;5065013;28;20339;-57
2023/01/16 12:40:19;;;;;;;;;;;;;;;;;;5065296;28;19927;-57
2023/01/16 12:45:30;;;;;;;;;;;;;;;;;;5063018;28;20371;-58
2023/01/16 12:47:56;;;;;;;;;;;;;;;;;;5068540;28;19971;-57
2023/01/16 12:50:22;;;;;;;;;;;;;;;;;;5068959;28;19920;-58
2023/01/16 12:52:48;;;;;;;;;;;;;;;;;;5069039;28;19921;-57
2023/01/16 12:55:14;;;;;;;;;;;;;;;;;;5068391;28;19921;-63
2023/01/16 12:57:39;;;;;;;;;;;;;;;;;;5068510;28;20069;-58
2023/01/16 13:00:05;;;;;;;;;;;;;;;;;;5069131;28;19925;-58
2023/01/16 13:02:34;;;;;;;;;;;;;;;;;;5068565;28;19920;-58
2023/01/16 13:05:00;;;;;;;;;;;;;;;;;;5068328;28;20311;-60
2023/01/16 13:07:26;;;;;;;;;;;;;;;;;;5069318;28;19927;-58
2023/01/16 13:13:20;;;;;;;;;;;;;;;;;;5068892;28;19968;-60
2023/01/16 13:15:22;;;;;;;;;;;;;;;;;;5068502;28;20457;-57
2023/01/16 13:17:48;;;;;;;;;;;;;;;;;;5068966;28;19931;-58
2023/01/16 13:20:14;;;;;;;;;;;;;;;;;;5067545;28;19939;-57
2023/01/16 13:22:40;;;;;;;;;;;;;;;;;;5068784;28;20095;-58
2023/01/16 13:25:07;;;;;;;;;;;;;;;;;;5068607;28;19920;-57
2023/01/16 13:27:33;;;;;;;;;;;;;;;;;;5067703;28;20398;-59
2023/01/16 13:29:59;;;;;;;;;;;;;;;;;;5068469;28;20404;-60
2023/01/16 13:32:24;;;;;;;;;;;;;;;;;;5069113;28;19924;-58
2023/01/16 13:34:50;;;;;;;;;;;;;;;;;;5076798;28;20292;-57
2023/01/16 13:37:16;;;;;;;;;;;;;;;;;;5077848;28;19920;-58
2023/01/16 13:39:42;;;;;;;;;;;;;;;;;;5084876;28;19927;-57
2023/01/16 13:42:08;;;;;;;;;;;;;;;;;;5084327;28;20057;-56
2023/01/16 13:47:19;;;;;;;;;;;;;;;;;;5081216;28;19924;-58
2023/01/16 13:49:45;;;;;;;;;;;;;;;;;;5075498;28;19935;-57
2023/01/16 13:52:12;;;;;;;;;;;;;;;;;;5080088;28;19924;-58
2023/01/16 13:54:38;;;;;;;;;;;;;;;;;;5081180;28;19949;-58
2023/01/16 13:57:04;;;;;;;;;;;;;;;;;;5078370;28;20338;-58
2023/01/16 13:59:30;;;;;;;;;;;;;;;;;;5087027;28;20278;-57
2023/01/16 14:01:56;;;;;;;;;;;;;;;;;;5082833;28;19941;-58
2023/01/16 14:04:23;;;;;;;;;;;;;;;;;;5081862;28;19920;-57
2023/01/16 14:06:49;;;;;;;;;;;;;;;;;;5078090;28;20027;-58
2023/01/16 14:09:15;;;;;;;;;;;;;;;;;;5078995;28;20011;-59
2023/01/16 14:11:41;;;;;;;;;;;;;;;;;;5084902;28;20007;-57
2023/01/16 14:14:07;;;;;;;;;;;;;;;;;;5079204;28;19927;-59
2023/01/16 14:16:35;;;;;;;;;;;;;;;;;;5075500;28;20284;-58
2023/01/16 14:19:01;;;;;;;;;;;;;;;;;;5086895;28;19928;-58
2023/01/16 14:21:26;;;;;;;;;;;;;;;;;;5086230;28;19920;-57
2023/01/16 14:24:01;;;;;;;;;;;;;;;;;;5074385;28;19939;-59
2023/01/16 14:26:28;;;;;;;;;;;;;;;;;;5076555;28;20006;-58
2023/01/16 14:28:54;;;;;;;;;;;;;;;;;;5066924;28;19999;-57
2023/01/16 14:31:20;;;;;;;;;;;;;;;;;;5081474;28;19920;-57
2023/01/16 14:33:46;;;;;;;;;;;;;;;;;;5077792;28;20019;-60
2023/01/16 14:36:12;;;;;;;;;;;;;;;;;;5079050;28;19924;-57
2023/01/16 14:38:38;;;;;;;;;;;;;;;;;;5086048;28;19920;-57
2023/01/16 14:55:13;;;;;;;;;;;;;;;;;;5017907;28;19921;-58
2023/01/16 14:57:40;;;;;;;;;;;;;;;;;;5060772;28;19998;-58
2023/01/16 15:00:09;;;;;;;;;;;;;;;;;;5079023;28;20371;-60
2023/01/16 15:02:35;;;;;;;;;;;;;;;;;;5078606;28;19931;-57
2023/01/16 15:05:01;;;;;;;;;;;;;;;;;;5079240;28;20283;-58
2023/01/16 15:07:27;;;;;;;;;;;;;;;;;;5076836;28;20028;-57
2023/01/16 15:09:53;;;;;;;;;;;;;;;;;;5077625;28;19985;-58
2023/01/16 15:12:19;;;;;;;;;;;;;;;;;;5081148;28;20399;-58
2023/01/16 15:14:45;;;;;;;;;;;;;;;;;;5069470;28;19924;-58
2023/01/16 15:22:40;;;;;;;;;;;;;;;;;;5078380;28;19963;-57
2023/01/16 15:25:06;;;;;;;;;;;;;;;;;;5073074;28;19966;-57
2023/01/16 15:27:31;;;;;;;;;;;;;;;;;;5071880;28;19926;-59
2023/01/16 15:29:59;;;;;;;;;;;;;;;;;;5073843;28;20287;-58
2023/01/16 15:32:25;;;;;;;;;;;;;;;;;;5074556;28;19959;-58
2023/01/16 15:34:51;;;;;;;;;;;;;;;;;;5083445;28;20368;-59
2023/01/16 15:37:17;;;;;;;;;;;;;;;;;;5076572;28;20025;-56
2023/01/16 15:39:45;;;;;;;;;;;;;;;;;;5076627;28;20120;-57
2023/01/16 15:47:40;;;;;;;;;;;;;;;;;;5075018;28;20356;-58
2023/01/16 15:50:07;;;;;;;;;;;;;;;;;;5084165;28;19963;-57
2023/01/16 15:52:38;;;;;;;;;;;;;;;;;;5072689;28;20380;-59
2023/01/16 15:55:04;;;;;;;;;;;;;;;;;;5070314;28;19925;-58
2023/01/16 15:57:30;;;;;;;;;;;;;;;;;;5067335;28;20269;-59
2023/01/16 15:59:56;;;;;;;;;;;;;;;;;;5077792;28;19925;-58
2023/01/16 16:02:27;;;;;;;;;;;;;;;;;;5070326;28;19925;-58
2023/01/16 16:04:56;;;;;;;;;;;;;;;;;;5076429;28;20291;-58
2023/01/16 16:07:22;;;;;;;;;;;;;;;;;;5077624;28;20383;-58
2023/01/16 16:09:49;;;;;;;;;;;;;;;;;;5072442;28;19931;-58
2023/01/16 16:12:15;;;;;;;;;;;;;;;;;;5084394;28;19935;-58
2023/01/16 16:20:10;;;;;;;;;;;;;;;;;;5074252;28;19924;-58
2023/01/16 16:22:48;;;;;;;;;;;;;;;;;;5079448;28;19977;-58
2023/01/16 16:25:14;;;;;;;;;;;;;;;;;;5086782;28;19928;-60
2023/01/16 16:27:40;;;;;;;;;;;;;;;;;;5086626;28;19947;-58
2023/01/16 16:30:06;;;;;;;;;;;;;;;;;;5086896;28;19931;-58
2023/01/16 16:32:32;;;;;;;;;;;;;;;;;;5088266;28;19955;-58
2023/01/16 16:34:58;;;;;;;;;;;;;;;;;;5090239;28;19920;-58
2023/01/16 16:37:24;;;;;;;;;;;;;;;;;;5088995;28;19940;-60
2023/01/16 16:39:49;;;;;;;;;;;;;;;;;;5087688;28;20363;-58
2023/01/16 16:42:29;;;;;;;;;;;;;;;;;;5086830;28;19928;-59
2023/01/16 16:44:55;;;;;;;;;;;;;;;;;;5083999;28;19975;-59
2023/01/16 16:47:21;;;;;;;;;;;;;;;;;;5087674;28;19983;-58
2023/01/16 16:49:47;;;;;;;;;;;;;;;;;;5087910;28;20003;-60
2023/01/16 16:52:23;;;;;;;1.63;1.48;;;;;;;;;;5085446;28;20014;-58
2023/01/16 16:54:55;;;;;;;1.20;1.10;;;;;;;;;;5086527;28;20139;-59
2023/01/16 16:57:21;;;;;;;;;;;;;;;;;;5087169;28;20040;-59
2023/01/16 16:59:47;;;;;;;;;;;;;;;;;;5089220;28;20269;-60
2023/01/16 17:02:13;;;;;;;;;;;;;;;;;;5088907;28;20371;-58
2023/01/16 17:04:38;;;;;;;;;;;;;;;;;;5081839;28;19920;-61
2023/01/16 17:07:05;;;;;;;;;;;;;;;;;;5085033;28;20367;-61
2023/01/16 17:09:33;;;;;;;;;;;;;;;;;;5086973;28;19946;-59
2023/01/16 17:11:59;;;;;;;;;;;;;;;;;;5085621;28;19920;-58
2023/01/16 17:14:25;;;;;;;;;;;;;;;;;;5087007;28;19920;-59
2023/01/16 17:16:50;;;;;;;;;;;;;;;;;;5071996;28;20279;-59
2023/01/16 17:19:16;;;;;;;;;;;;;;;;;;5083108;28;20155;-59
2023/01/16 17:21:42;;;;;;;;;;;;;;;;;;5085187;28;19924;-61
2023/01/16 17:24:08;;;;;;;;;;;;;;;;;;5073976;28;19943;-58
2023/01/16 17:26:38;;;;;;;;;;;;;;;;;;5086996;28;19924;-59
2023/01/16 17:29:04;;;;;;;;;;;;;;;;;;5074516;28;19924;-58
2023/01/16 17:31:30;;;;;;;;;;;;;;;;;;5073553;28;19923;-59
2023/01/16 17:33:56;;;;;;;;;;;;;;;;;;5082854;28;19920;-58
2023/01/16 17:36:22;;;;;;;;;;;;;;;;;;5067522;28;19920;-59
2023/01/16 17:38:48;;;;;;;;;;;;;;;;;;5074405;28;20356;-59
2023/01/16 17:41:14;;;;;;;;;;;;;;;;;;5082410;28;20015;-59
2023/01/16 17:46:24;;;;;;;;;;;;;;;;;;5077323;28;19923;-59
2023/01/16 17:48:50;;;;;;;;;;;;;;;;;;5082101;28;19920;-61
2023/01/16 17:51:21;;;;;;;;;;;;;;;;;;5078661;28;19926;-58
2023/01/16 17:53:47;;;;;;;;;;;;;;;;;;5075464;28;19999;-59
2023/01/16 17:56:13;;;;;;;;;;;;;;;;;;5085641;28;20257;-61
2023/01/16 18:01:10;;;;;;;;;;;;;;;;;;5071878;28;19927;-58
2023/01/16 18:03:36;;;;;;;;;;;;;;;;;;5072686;28;20301;-59
2023/01/16 18:06:02;;;;;;;;;;;;;;;;;;5068320;28;19977;-59
2023/01/16 18:08:28;;;;;;;;;;;;;;;;;;5072539;28;19924;-60
2023/01/16 18:10:54;;;;;;;;;;;;;;;;;;5083208;28;20405;-59